Tadoussac, Canada
Current Conditions -  °F | °C
As of 10:00 PM on Saturday 22 Nov 2014 (Local Time) from CYBG Reporting Station
Blowing Snow Blowing Snow  
Wind Chill: 24°   Ceiling: 4500
Heat Index: 34°   Visibility: 15mi
Dew Point: 30°   Wind: 16mph
Humidity: 87%   Direction: 240°WSW
Pressure: 29.68"   Gusts: 22mph
Location:  48.15°N, 69.72°W
Report Text: CYBG 230300Z 24014G19KT 15SM -SHSN DRSN SCT020 OVC045 01/M01 A2968 RMK SC3SC5 SLP062
Loading
Personal Weather Stations






























Interactive Weather Map New forecast layout! Learn more

10-Day Weather Forecast

Advertisements
Track Severe Weather on mobile